LiveATC.Net - Listen to live air traffic control over the Internet!

Find LiveATC Audio Streams


Airport/ARTCC Code

Frequency Search
(e.g., 124.400, 128.75)
Site-wide search
 


Browse LiveATC Feeds
Top 50 LiveATC Feeds
Bad Weather Areas

LiveATC FAQ
Offer a LiveATC Feed
Contact LiveATC.net
Press Inquiries

LiveATC on iPhone
LiveATC on Android

Windows Phone
Windows 8/10

LiveATC Mobile
(Mobile browser)

ATC Audio Archives
Interesting Recordings

LiveATC Forums

Home Page
About LiveATC.net
Make a Donation
Terms of Use
Privacy Policy

Canadian Air Freqs

AIRMETs/SIGMETs

FAA Airport Status
Nat'l Airspace Status
Arrival Demand Charts


Server Software By:
Icecast.org
Liquidsoap


Current Potentially Bad Weather Airports
(updated every 30 minutes - sorted alphabetically by ICAO code)



This page lists LiveATC.net airport areas that may be interesting to listen to because of challenging flying (weather) conditions. Challenging weather conditions include low ceilings, limited visibility, high or gusty winds, or thunderstorms.

Updated: Tue Dec 11 01:10:01 UTC 2018
Click on airport name to go to that airport area's feeds.

CYSB Gnd/Twr/Center Sudbury Airport (Sudbury, CA-ON)
WX MAP UNAVAILABLENearest METAR:
CYSB 110000Z 14006KT 12SM -SN BKN004 OVC009 M09/M10 A3002 RMK SF5SC3 SLP192
CYTS ATIS Timmins Airport (Timmins, CA-ON)
WX MAP UNAVAILABLENearest METAR:
CYTS 110004Z 14007KT 10SM -FZDZ -SN OVC007 M06/M07 A2994 RMK SC8 SLP164
EFKK Tower Kokkola-Pietarsaari Airport (Kronoby, Finland)
WX MAP UNAVAILABLENearest METAR:
EFKK 110050Z AUTO 01006KT 9999 OVC002 00/M00 Q1011
EIKN Gnd/Twr/App Ireland West Airport Knock (Charlestown, Ireland)
WX MAP UNAVAILABLENearest METAR:
EIKN 101930Z 17008KT 140V210 0800 -DZ FG OVC002 09/09 Q1021 NOSIG
ESGG Gnd/Twr/Control Landvetter Airport (Gothenburg, Sweden)
WX MAP UNAVAILABLENearest METAR:
ESGG 110050Z 36012KT 9999 OVC009 01/M01 Q1008 R03/19//95
ESSL Twr/App/Control Linkoping City (Saab) Airport (Linkoping, Sweden)
WX MAP UNAVAILABLENearest METAR:
ESSL 110050Z AUTO 36008KT 9999 OVC004/// 02/02 Q1006
EVRA Tower/Guard Riga International Airport (Riga, Latvia)
WX MAP UNAVAILABLENearest METAR:
EVRA 110050Z 15003KT 0500 R18/0600N FZFG VV001 M02/M02 Q1004 R18/320195 NOSIG
EYKA Gnd/Twr/FIS Kaunas Airport (Kaunas, Lithuania)
WX MAP UNAVAILABLENearest METAR:
EYKA 110050Z AUTO VRB01KT 0200 R26/0700D FG OVC002/// M01/M02 Q1004
EYVI Twr/App/Misc Vilnius International Airport (Vilnius, Lithuania)
WX MAP UNAVAILABLENearest METAR:
EYVI 110050Z 29004KT 260V320 9000 OVC003 01/01 Q1004 R01/2/0195 TEMPO 0600 FG
KBHM Gnd/Twr/App Birmingham-Shuttlesworth International Airport (Birmingham, US-AL)
kbhmNearest METAR:
KBHM 110053Z 34006KT 8SM OVC007 03/02 A3026 RMK AO2 SLP250 T00330022
KNEL/KWRI/ZNY Lakehurst Maxfield Field Joint Base McGuire (Lakehurst, US-NJ)
kwriNearest METAR:
KWRI 102356Z 00000KT 10SM FEW250 M03/M07 A3011 RMK AO2A SLP198 T10351070 10041 21037 50005 RVRNO $
KCCO CTAF Newnan Coweta County Airport (Atlanta, US-GA)
kccoNearest METAR:
KCCO 110035Z AUTO 36006KT 10SM -DZ OVC006 05/04 A3016 RMK AO2 T00530037
KCTJ/KLGC CTAF LaGrange-Callaway Airport (Lagrange, US-GA)
kctjNearest METAR:
KCTJ 110055Z AUTO 34004KT 10SM RA OVC008 04/03 A3020 RMK AO2 T00350028
KFFC CTAF Atlanta Regional Airport-Falcon Field (Atlanta, US-GA)
kffcNearest METAR:
KFFC 110053Z AUTO 32004KT 10SM -RA OVC009 06/04 A3017 RMK AO2 RAB52 SLP222 P0000 T00560044
KCKB App/Dep North Central West Virginia Airport (Clarksburg, US-WV)
kckbNearest METAR:
KCKB 110053Z 00000KT 9SM OVC009 M05/M08 A3022 RMK AO2 SLP245 T10501078
KCLM Del/CTAF/App William R Fairchild International Airport (Port Angeles, US-WA)
kclmNearest METAR:
KCLM 110053Z AUTO 00000KT 1SM BR VV002 04/03 A3020 RMK AO2 SLP228 T00390033
KCMI Del/Gnd/Twr/App University of Illinois-Willard Airport (Champaign/Urbana, US-IL)
kcmiNearest METAR:
KCMI 110053Z 20007KT 1/4SM R32R/1400V1600FT FZFG VV001 M04/M05 A3026 RMK AO2 SLP259 I1001 T10441050
KDAY Del/Gnd/Twr/App James M Cox Dayton International Airport (Dayton, US-OH)
kdayNearest METAR:
KDAY 110056Z 30006KT 6SM BR OVC008 M04/M07 A3025 RMK AO2 SLP258 T10441067
KFWA App/Dep Fort Wayne International Airport (Fort Wayne, US-IN)
kfwaNearest METAR:
KFWA 110054Z 21010KT 8SM OVC009 M04/M06 A3022 RMK AO2 SLP247 T10391061 $
KGEG Del/Gnd/Twr/App Spokane International Airport (Spokane, US-WA)
kgegNearest METAR:
KGEG 110053Z 22005KT 1/2SM R21/P6000FT BR OVC004 M02/M03 A3022 RMK AO2 SFC VIS 3/4 SLP258 T10221028
KGUS Del/Gnd/Twr/App Grissom Air Reserve Base (Peru, US-IN)
kgusNearest METAR:
KGUS 110056Z 23007KT 7SM OVC006 M05/M05 A3023 RMK AO2A SLP253 T10551055 $
KHIO Ground/Tower Portland-Hillsboro Airport (Portland, US-OR)
WX MAP UNAVAILABLENearest METAR:
KHIO 110053Z 00000KT 1/2SM R13R/2600V3500FT FG VV002 06/04 A3029 RMK AO2 SLP257 T00560044
KMAN/KEUL CTAF Caldwell Industrial Airport (Nampa, US-ID)
keulNearest METAR:
KEUL 110056Z AUTO 22004KT FEW030 OVC035 01/M02 A3031 RMK AO2 SLP287 T00061017 PWINO FZRANO RVRNO $
KMMV CTAF Mc Minnville Municipal Airport (Mc Minnville, US-OR)
kmmvNearest METAR:
KMMV 110053Z AUTO 00000KT 1/2SM FG VV002 06/06 A3029 RMK AO2 SLP257 T00560056
KPDX Gnd/Twr/App Portland International Airport (Portland, US-OR)
kpdxNearest METAR:
KPDX 110053Z 11004KT 10SM OVC008 06/05 A3031 RMK AO2 SLP263 T00610050
KPGV CTAF Pitt-Greenville Airport (Greenville, US-NC)
kpgvNearest METAR:
KPGV 110050Z AUTO 35008KT 7SM -RA OVC008 01/00 A3014 RMK AO2 P0001
KPSC/KRLD/S98/ZSE Tri-Cities Airport (Pasco, US-WA)
kpscNearest METAR:
KPSC 110053Z 35004KT 7SM OVC007 01/M01 A3033 RMK AO2 SLP274 T00061011
KPWT CTAF Bremerton National Airport (Bremerton, US-WA)
kpwtNearest METAR:
KPWT 110056Z AUTO 20007KT 10SM OVC004 06/06 A3023 RMK AO2 SLP254 T00610056
KSFF Ground/Tower Felts Field Airport (Spokane, US-WA)
ksffNearest METAR:
KSFF 110053Z 21009KT 9SM OVC007 00/M02 A3024 RMK AO2 SLP258 T00001017
KSUN Ground/Tower Friedman Memorial Airport (Hailey, US-ID)
ksunNearest METAR:
KSUN 102347Z 11005KT 2 1/2SM -SN BKN012 BKN021 BKN060 M02/M04 A3017
KUAO Del/Gnd/Twr Aurora State Airport (Aurora, US-OR)
kuaoNearest METAR:
KUAO 110053Z 00000KT 3/4SM BR OVC002 08/07 A3030 RMK AO2 SLP261 T00780072
LKAA FIR (High) Prague Vaclav Havel Airport (Prague, Czech Republic)
WX MAP UNAVAILABLENearest METAR:
LKPR 110030Z 25013KT 9999 -SNRA FEW032 BKN040 01/M02 Q1012 NOSIG
LSMD Tower Dubendorf Air Base (Dubendorf, Switzerland)
WX MAP UNAVAILABLENearest METAR:
LSMD 110020Z AUTO 29007KT 250V340 3000NDV -SN SCT005 BKN010 BKN017 01/00 Q1024 RMK
LTAF Tower/Approach Adana Airport (Adana, Turkey)
WX MAP UNAVAILABLENearest METAR:
LTAF 110052Z 28017G28KT 250V040 3100 TSGRRA SCT020CB BKN030 13/13 Q1009 RETSRA BECMG TL0120 99
LTFJ Del/Gnd/Twr #1 Istanbul Sabiha Gokcen International Airport (Istanbul, Turkey)
WX MAP UNAVAILABLENearest METAR:
LTFJ 110050Z 30009KT 260V340 7000 -SHRA SCT013 BKN030 BKN070 07/05 Q1004 TEMPO 35023G33KT 4000 SHRA
LUKK Air to Air Chisinau International Airport (Chisinau, Moldova)
WX MAP UNAVAILABLENearest METAR:
LUKK 110030Z 34005KT 0700 R08/2000N FZFG VV001 M00/M00 Q1009 R08/120095 TEMPO 1200 BR